Time;durP1;ratioP1;P1;durP2;ratioP2;P2;SDS_P1;SDS_P2;PMS_P1;PMS_P2;Temp;Humidity;BMP_temperature;BMP_pressure;BME280_temperature;BME280_humidity;BME280_pressure;Samples;Min_cycle;Max_cycle;Signal;HPM_P1;HPM_P2
2022/11/09 00:01:20;;;;;;;1.63;1.50;;;16.70;99.60;;;;;;4946965;29;20504;-85
2022/11/09 00:03:55;;;;;;;2.97;1.67;;;16.80;99.40;;;;;;4961370;28;20480;-87
2022/11/09 00:06:22;;;;;;;2.20;1.63;;;16.80;99.40;;;;;;4951661;28;20474;-89
2022/11/09 00:08:50;;;;;;;1.87;1.37;;;16.80;99.50;;;;;;4976833;28;20463;-83
2022/11/09 00:11:17;;;;;;;1.93;1.63;;;16.90;99.50;;;;;;4927416;29;20493;-85
2022/11/09 00:13:44;;;;;;;3.17;1.80;;;16.90;99.30;;;;;;4961985;28;20935;-86
2022/11/09 00:16:13;;;;;;;3.10;1.50;;;16.70;99.50;;;;;;4946836;29;20464;-85
2022/11/09 00:18:44;;;;;;;1.23;1.13;;;16.80;99.50;;;;;;4961001;28;20464;-87
2022/11/09 00:21:13;;;;;;;1.30;1.20;;;16.70;99.50;;;;;;4945124;28;20480;-87
2022/11/09 00:23:40;;;;;;;2.90;1.67;;;16.60;99.90;;;;;;4952700;28;20502;-85
2022/11/09 00:26:10;;;;;;;2.50;1.57;;;16.50;99.90;;;;;;4954137;28;20464;-86
2022/11/09 00:28:37;;;;;;;2.30;1.20;;;16.50;99.90;;;;;;4943542;29;20448;-87
2022/11/09 00:31:12;;;;;;;2.00;1.33;;;16.40;99.90;;;;;;4964533;28;20561;-86
2022/11/09 00:33:41;;;;;;;2.37;1.70;;;16.40;99.90;;;;;;4956693;28;21032;-86
2022/11/09 00:36:12;;;;;;;1.77;1.67;;;16.40;99.90;;;;;;4955251;28;20466;-87
2022/11/09 00:38:39;;;;;;;1.40;1.30;;;16.40;99.90;;;;;;4946434;29;20463;-86
2022/11/09 00:41:08;;;;;;;1.93;1.50;;;16.30;99.90;;;;;;4957233;28;20498;-86
2022/11/09 00:43:37;;;;;;;2.00;1.40;;;16.30;99.90;;;;;;4950162;28;20498;-85
2022/11/09 00:46:04;;;;;;;2.27;2.00;;;16.30;99.90;;;;;;4976559;28;20554;-87
2022/11/09 00:48:31;;;;;;;2.17;1.53;;;16.30;99.90;;;;;;4939315;29;20464;-87
2022/11/09 00:50:58;;;;;;;1.97;1.40;;;16.30;99.90;;;;;;4969358;28;20482;-86
2022/11/09 00:53:26;;;;;;;2.47;1.70;;;16.20;99.90;;;;;;4951431;28;20541;-87
2022/11/09 00:56:00;;;;;;;1.77;1.67;;;16.00;99.90;;;;;;4959428;28;20557;-86
2022/11/09 00:58:29;;;;;;;1.80;1.40;;;15.90;99.90;;;;;;4946352;28;20456;-86
2022/11/09 01:00:58;;;;;;;2.43;1.23;;;16.20;99.90;;;;;;4971954;28;20538;-86
2022/11/09 01:03:26;;;;;;;2.43;1.60;;;16.40;99.90;;;;;;4940267;29;20463;-86
2022/11/09 01:06:01;;;;;;;2.90;1.80;;;16.40;99.90;;;;;;4963725;28;20455;-86
2022/11/09 01:08:34;;;;;;;2.73;2.53;;;16.40;99.90;;;;;;4953765;28;20460;-86
2022/11/09 01:11:05;;;;;;;2.50;1.80;;;16.40;99.90;;;;;;4946833;28;20463;-86
2022/11/09 01:13:36;;;;;;;1.50;1.40;;;16.40;99.90;;;;;;4981522;28;20459;-85
2022/11/09 01:16:08;;;;;;;1.50;1.40;;;16.30;99.90;;;;;;4969734;28;20452;-87
2022/11/09 01:18:36;;;;;;;2.40;1.60;;;16.40;99.90;;;;;;4961446;28;20449;-87
2022/11/09 01:21:05;;;;;;;1.30;1.20;;;16.40;99.90;;;;;;4989447;28;20481;-86
2022/11/09 01:23:32;;;;;;;2.40;1.30;;;16.40;99.50;;;;;;4981939;28;20436;-87
2022/11/09 01:26:01;;;;;;;4.93;2.37;;;16.40;99.50;;;;;;4978350;28;20456;-86
2022/11/09 01:28:31;;;;;;;2.87;1.53;;;16.50;99.30;;;;;;4988185;28;20511;-86
2022/11/09 01:31:15;;;;;;;1.40;1.20;;;16.50;98.70;;;;;;4962722;28;20483;-87
2022/11/09 01:33:42;;;;;;;1.60;1.10;;;16.60;98.60;;;;;;4975555;28;20456;-86
2022/11/09 01:36:13;;;;;;;2.90;1.63;;;16.60;98.50;;;;;;4962327;28;20510;-85
2022/11/09 01:38:48;;;;;;;1.50;1.40;;;16.50;98.50;;;;;;4955617;28;20461;-85
2022/11/09 01:41:19;;;;;;;1.40;1.30;;;16.60;98.40;;;;;;4965462;28;20484;-85
2022/11/09 01:44:01;;;;;;;1.47;1.37;;;16.60;98.40;;;;;;4968981;28;20443;-85
2022/11/09 01:46:43;;;;;;;1.30;1.20;;;16.60;98.40;;;;;;4947020;28;20459;-87
2022/11/09 01:49:33;;;;;;;2.10;1.47;;;16.50;98.50;;;;;;4950464;28;20448;-85
2022/11/09 01:52:19;;;;;;;1.70;1.60;;;16.60;98.60;;;;;;4970334;28;20551;-86
2022/11/09 01:54:49;;;;;;;2.60;1.57;;;16.50;99.00;;;;;;4945358;28;20448;-85
2022/11/09 01:57:33;;;;;;;1.93;1.40;;;16.50;99.10;;;;;;4966236;28;20450;-87
2022/11/09 02:00:08;;;;;;;3.13;1.27;;;16.40;99.30;;;;;;4953096;29;20476;-86
2022/11/09 02:02:38;;;;;;;2.00;1.80;;;16.40;99.20;;;;;;4961168;29;20465;-86
2022/11/09 02:05:11;;;;;;;1.87;1.70;;;16.40;99.00;;;;;;4954392;29;20487;-85
2022/11/09 02:07:43;;;;;;;3.37;1.90;;;16.50;99.20;;;;;;4956169;28;20532;-87
2022/11/09 02:10:34;;;;;;;1.70;1.17;;;16.40;99.30;;;;;;4946132;29;20457;-85
2022/11/09 02:13:02;;;;;;;1.80;1.30;;;16.50;99.10;;;;;;4921088;28;20961;-85
2022/11/09 02:15:29;;;;;;;3.90;1.40;;;16.50;99.00;;;;;;4976843;28;20459;-86
2022/11/09 02:17:57;;;;;;;2.33;1.50;;;16.60;99.00;;;;;;4961045;28;20452;-86
2022/11/09 02:20:30;;;;;;;3.07;1.70;;;16.50;99.10;;;;;;4963941;28;20497;-86
2022/11/09 02:22:56;;;;;;;2.67;1.60;;;16.50;99.20;;;;;;4995514;23;20494;-86
2022/11/09 02:25:23;;;;;;;2.27;1.60;;;16.50;99.30;;;;;;5005561;28;20446;-88
2022/11/09 02:27:50;;;;;;;2.20;1.50;;;16.50;99.40;;;;;;4987268;28;20460;-85
2022/11/09 02:30:19;;;;;;;1.57;1.47;;;16.50;99.50;;;;;;4993450;28;20441;-86
2022/11/09 02:32:46;;;;;;;2.50;1.73;;;16.40;99.50;;;;;;4971631;28;20476;-86
2022/11/09 02:35:13;;;;;;;2.93;1.90;;;16.30;99.80;;;;;;4959283;28;20452;-85
2022/11/09 02:37:48;;;;;;;1.80;1.50;;;16.40;99.90;;;;;;4960025;29;20444;-86
2022/11/09 02:40:35;;;;;;;1.87;1.60;;;16.40;99.90;;;;;;4969546;28;20586;-87
2022/11/09 02:43:03;;;;;;;3.17;1.83;;;16.20;99.90;;;;;;4986364;28;20461;-87
2022/11/09 02:45:30;;;;;;;1.53;1.43;;;16.30;99.90;;;;;;4968199;28;20455;-85
2022/11/09 02:47:57;;;;;;;1.77;1.67;;;16.40;99.90;;;;;;4962089;28;20448;-85
2022/11/09 02:50:24;;;;;;;2.73;1.70;;;16.40;99.90;;;;;;4960833;29;20550;-86
2022/11/09 02:52:53;;;;;;;9.37;4.30;;;16.30;99.90;;;;;;4954631;29;20466;-85
2022/11/09 02:55:19;;;;;;;1.77;1.67;;;16.30;99.90;;;;;;4953046;28;20462;-86
2022/11/09 02:57:46;;;;;;;3.43;1.97;;;16.20;99.90;;;;;;4971540;28;20448;-85
2022/11/09 03:00:16;;;;;;;1.70;1.50;;;16.20;99.90;;;;;;4984441;28;20473;-87
2022/11/09 03:02:43;;;;;;;2.33;2.00;;;16.30;99.90;;;;;;4983258;28;20459;-86
2022/11/09 03:05:11;;;;;;;2.50;2.30;;;16.30;99.80;;;;;;4972640;28;20483;-85
2022/11/09 03:07:43;;;;;;;2.53;1.70;;;16.30;99.90;;;;;;4977606;28;20439;-84
2022/11/09 03:10:11;;;;;;;2.57;1.50;;;16.40;99.90;;;;;;4981638;28;20451;-86
2022/11/09 03:12:43;;;;;;;3.00;1.50;;;16.30;99.90;;;;;;4981973;28;20459;-86
2022/11/09 03:15:11;;;;;;;3.57;2.30;;;16.20;99.90;;;;;;4982318;28;20521;-85
2022/11/09 03:17:38;;;;;;;1.33;1.23;;;16.30;99.90;;;;;;4993932;28;20442;-87
2022/11/09 03:20:15;;;;;;;5.93;1.40;;;16.30;99.90;;;;;;4978419;28;20475;-86
2022/11/09 03:22:56;;;;;;;2.07;1.50;;;16.20;99.90;;;;;;4976692;28;20479;-85
2022/11/09 03:25:32;;;;;;;1.40;1.30;;;16.20;99.90;;;;;;4961047;28;20792;-86
2022/11/09 03:28:09;;;;;;;1.27;1.17;;;16.30;99.90;;;;;;4969897;28;20462;-86
2022/11/09 03:30:53;;;;;;;2.80;1.53;;;16.20;99.90;;;;;;4926390;29;20434;-85
2022/11/09 03:33:37;;;;;;;1.87;1.33;;;16.30;99.90;;;;;;4906815;29;20500;-87
2022/11/09 03:36:15;;;;;;;2.07;1.30;;;16.30;99.90;;;;;;4930715;29;20903;-87
2022/11/09 03:39:13;;;;;;;1.77;1.60;;;16.30;99.90;;;;;;4943238;29;20550;-86
2022/11/09 03:42:01;;;;;;;4.83;1.60;;;16.20;99.90;;;;;;4919638;29;20516;-87
2022/11/09 03:45:15;;;;;;;2.23;1.30;;;16.20;99.90;;;;;;4942987;29;20434;-85
2022/11/09 03:47:43;;;;;;;1.20;1.10;;;16.00;99.90;;;;;;4934666;29;20485;-86
2022/11/09 03:50:42;;;;;;;5.07;1.60;;;16.20;99.90;;;;;;4931857;29;20454;-86
2022/11/09 03:53:36;;;;;;;2.00;1.20;;;16.20;99.90;;;;;;4928390;29;20568;-85
2022/11/09 03:56:14;;;;;;;4.73;1.50;;;16.30;99.90;;;;;;4922476;29;20552;-85
2022/11/09 03:58:46;;;;;;;1.60;1.30;;;16.50;99.90;;;;;;4905170;29;20465;-85
2022/11/09 04:01:22;;;;;;;1.30;1.20;;;16.50;99.90;;;;;;4919932;29;20489;-86
2022/11/09 04:04:01;;;;;;;2.40;1.20;;;16.50;99.90;;;;;;4933289;29;20433;-85
2022/11/09 04:06:38;;;;;;;1.53;1.17;;;16.50;99.90;;;;;;4930223;29;20852;-87
2022/11/09 04:09:14;;;;;;;1.17;1.07;;;16.40;99.90;;;;;;4996680;28;20449;-87
2022/11/09 04:11:51;;;;;;;4.17;1.30;;;16.40;99.90;;;;;;4971762;28;20472;-87
2022/11/09 04:14:23;;;;;;;1.83;1.20;;;16.40;99.90;;;;;;4960675;28;20447;-86
2022/11/09 04:17:25;;;;;;;1.87;1.10;;;16.30;99.90;;;;;;4978756;28;20407;-85
2022/11/09 04:20:15;;;;;;;2.63;1.47;;;16.40;99.90;;;;;;4971310;28;20479;-86
2022/11/09 04:22:56;;;;;;;1.30;1.20;;;16.40;99.90;;;;;;4987432;28;20478;-84
2022/11/09 04:25:34;;;;;;;1.60;1.40;;;16.50;99.90;;;;;;4975329;28;20481;-87
2022/11/09 04:28:11;;;;;;;1.90;1.30;;;16.40;99.90;;;;;;4971912;28;20439;-86
2022/11/09 04:30:42;;;;;;;2.90;1.60;;;16.40;99.90;;;;;;4969421;28;20451;-87
2022/11/09 04:33:14;;;;;;;3.33;1.70;;;16.30;99.90;;;;;;4971066;28;20571;-87
2022/11/09 04:35:44;;;;;;;4.20;1.90;;;16.30;99.80;;;;;;4973044;28;20454;-87
2022/11/09 04:38:23;;;;;;;2.50;1.57;;;16.40;99.90;;;;;;4963805;28;20486;-86
2022/11/09 04:41:03;;;;;;;2.63;1.50;;;16.40;99.70;;;;;;4967501;28;20505;-86
2022/11/09 04:43:37;;;;;;;4.10;2.93;;;16.30;99.80;;;;;;4985218;28;20557;-85
2022/11/09 04:46:10;;;;;;;4.13;1.50;;;16.40;99.60;;;;;;4985017;28;20450;-85
2022/11/09 04:48:40;;;;;;;2.13;1.40;;;16.40;99.80;;;;;;4958561;28;20435;-87
2022/11/09 04:51:13;;;;;;;2.33;1.73;;;16.50;99.90;;;;;;4958242;28;20476;-86
2022/11/09 04:53:47;;;;;;;5.10;1.87;;;16.30;99.90;;;;;;4959592;28;20455;-87
2022/11/09 04:56:19;;;;;;;2.33;1.80;;;16.20;99.90;;;;;;4965626;28;20480;-85
2022/11/09 04:58:50;;;;;;;3.60;1.77;;;16.10;99.90;;;;;;4966173;28;20467;-86
2022/11/09 05:01:22;;;;;;;1.57;1.27;;;16.40;99.90;;;;;;4982794;28;20573;-85
2022/11/09 05:03:51;;;;;;;2.70;1.67;;;16.40;99.90;;;;;;4971719;28;20443;-86
2022/11/09 05:06:34;;;;;;;4.07;1.77;;;16.40;99.90;;;;;;4972582;28;20783;-86
2022/11/09 05:09:09;;;;;;;4.20;1.77;;;16.30;99.90;;;;;;4971998;28;20454;-86
2022/11/09 05:11:49;;;;;;;1.73;1.60;;;16.30;99.90;;;;;;4967735;28;20492;-86
2022/11/09 05:14:24;;;;;;;2.43;1.33;;;16.10;99.90;;;;;;4967952;28;20427;-87
2022/11/09 05:16:53;;;;;;;2.37;1.20;;;16.00;99.90;;;;;;4966417;28;20470;-87
2022/11/09 05:19:25;;;;;;;3.53;1.87;;;15.90;99.90;;;;;;4967153;28;20510;-86
2022/11/09 05:23:57;;;;;;;1.77;1.40;;;15.90;99.90;;;;;;4963150;28;20542;-87
2022/11/09 05:24:53;;;;;;;4.73;1.97;;;15.80;99.90;;;;;;4977680;28;20439;-88
2022/11/09 05:27:33;;;;;;;2.40;1.97;;;15.50;99.90;;;;;;4972992;28;20465;-86
2022/11/09 05:30:11;;;;;;;1.83;1.10;;;15.30;99.90;;;;;;4971238;28;20427;-86
2022/11/09 05:32:52;;;;;;;1.90;1.40;;;15.30;99.90;;;;;;4973857;28;20451;-86
2022/11/09 05:35:34;;;;;;;2.30;1.70;;;15.60;99.90;;;;;;4956805;29;20464;-86
2022/11/09 05:38:15;;;;;;;2.77;1.60;;;15.50;99.90;;;;;;4968106;28;20447;-85
2022/11/09 05:41:07;;;;;;;2.70;1.30;;;15.20;99.90;;;;;;4989312;28;20463;-86
2022/11/09 05:43:34;;;;;;;2.70;1.33;;;15.40;99.90;;;;;;4970757;28;20451;-87
2022/11/09 05:46:08;;;;;;;1.27;1.17;;;15.40;99.90;;;;;;4967928;28;20459;-85
2022/11/09 05:48:37;;;;;;;3.53;1.97;;;15.40;99.90;;;;;;4981850;28;20932;-86
2022/11/09 05:51:10;;;;;;;3.33;1.63;;;15.60;99.90;;;;;;4956239;28;20925;-85
2022/11/09 05:53:46;;;;;;;2.03;1.77;;;15.70;99.90;;;;;;4980331;28;20466;-84
2022/11/09 05:56:14;;;;;;;4.93;1.37;;;15.70;99.90;;;;;;4981332;28;20460;-85
2022/11/09 05:58:44;;;;;;;2.30;1.30;;;15.40;99.90;;;;;;4956434;28;20546;-87
2022/11/09 06:01:18;;;;;;;4.77;2.50;;;15.40;99.90;;;;;;4959399;29;20488;-86
2022/11/09 06:03:48;;;;;;;6.20;1.83;;;15.40;99.90;;;;;;4991095;28;20531;-87
2022/11/09 06:06:18;;;;;;;2.37;1.93;;;15.50;99.90;;;;;;4981287;28;20471;-85
2022/11/09 06:08:45;;;;;;;3.80;2.70;;;15.50;99.90;;;;;;4982068;28;20443;-85
2022/11/09 06:11:14;;;;;;;3.20;2.27;;;15.50;99.90;;;;;;4977556;28;20474;-85
2022/11/09 06:13:51;;;;;;;2.90;2.43;;;15.50;99.90;;;;;;4978960;28;20451;-85
2022/11/09 06:16:26;;;;;;;4.40;3.00;;;15.60;99.90;;;;;;4984712;28;20459;-85
2022/11/09 06:18:56;;;;;;;6.20;2.23;;;15.70;99.90;;;;;;4999907;28;20466;-84
2022/11/09 06:21:27;;;;;;;4.20;2.20;;;15.70;99.90;;;;;;4981397;28;20476;-87
2022/11/09 06:24:07;;;;;;;2.93;1.93;;;15.60;99.90;;;;;;4963711;28;20452;-87
2022/11/09 06:26:39;;;;;;;2.57;2.30;;;15.50;99.90;;;;;;4947739;29;20547;-87
2022/11/09 06:29:08;;;;;;;2.53;1.97;;;15.50;99.90;;;;;;4961609;28;21189;-87
2022/11/09 06:31:38;;;;;;;2.20;2.00;;;15.50;99.90;;;;;;4964705;28;20502;-87
2022/11/09 06:34:07;;;;;;;2.23;1.27;;;15.60;99.90;;;;;;4964626;28;20961;-88
2022/11/09 06:36:35;;;;;;;3.00;1.70;;;15.60;99.90;;;;;;4972878;28;20561;-86
2022/11/09 06:39:02;;;;;;;1.70;1.50;;;15.70;99.90;;;;;;4964507;28;20473;-87
2022/11/09 06:41:35;;;;;;;2.63;1.83;;;15.60;99.90;;;;;;4962031;28;20494;-87
2022/11/09 06:44:07;;;;;;;3.20;1.87;;;15.30;99.90;;;;;;4958438;29;20466;-87
2022/11/09 06:46:40;;;;;;;3.40;2.00;;;15.10;99.90;;;;;;4970118;28;20583;-86
2022/11/09 06:49:10;;;;;;;6.47;1.73;;;15.00;99.90;;;;;;4968317;28;21178;-87
2022/11/09 06:51:38;;;;;;;2.60;1.40;;;15.20;99.90;;;;;;4961948;28;20487;-88
2022/11/09 06:54:07;;;;;;;1.70;1.13;;;15.10;99.90;;;;;;4959568;29;20459;-87
2022/11/09 06:56:37;;;;;;;1.80;1.30;;;15.10;99.90;;;;;;4952489;28;20486;-87
2022/11/09 06:59:06;;;;;;;2.33;1.50;;;15.50;99.90;;;;;;4962915;28;20454;-87
2022/11/09 07:01:36;;;;;;;4.87;1.87;;;15.50;99.90;;;;;;4961357;28;20495;-87
2022/11/09 07:04:09;;;;;;;2.33;1.80;;;15.50;99.90;;;;;;4958869;28;20461;-87
2022/11/09 07:06:45;;;;;;;2.30;1.77;;;15.50;99.90;;;;;;4963210;28;20495;-87
2022/11/09 07:09:19;;;;;;;3.83;1.60;;;15.60;99.90;;;;;;4960612;28;20458;-87
2022/11/09 07:11:49;;;;;;;3.03;1.50;;;15.70;99.90;;;;;;4968376;28;21163;-85
2022/11/09 07:14:24;;;;;;;2.70;1.60;;;15.40;99.90;;;;;;4960149;28;20472;-87
2022/11/09 07:16:52;;;;;;;3.97;1.90;;;15.40;99.90;;;;;;4962836;28;20956;-87
2022/11/09 07:19:26;;;;;;;5.40;2.80;;;15.60;99.90;;;;;;4963304;28;20459;-87
2022/11/09 07:22:00;;;;;;;4.93;2.20;;;15.70;99.90;;;;;;4961663;28;20488;-87
2022/11/09 07:24:36;;;;;;;4.67;2.03;;;15.80;99.90;;;;;;4959701;28;20450;-87
2022/11/09 07:27:06;;;;;;;4.53;1.90;;;15.50;99.90;;;;;;4967867;28;20501;-87
2022/11/09 07:29:39;;;;;;;4.07;1.90;;;15.40;99.90;;;;;;4974750;28;20492;-87
2022/11/09 07:32:12;;;;;;;2.83;1.73;;;15.30;99.90;;;;;;4956728;28;20479;-86
2022/11/09 07:34:45;;;;;;;3.80;2.00;;;15.30;99.90;;;;;;4979008;28;20451;-86
2022/11/09 07:37:17;;;;;;;3.33;1.53;;;15.40;99.90;;;;;;4961158;28;20498;-86
2022/11/09 07:39:47;;;;;;;4.37;1.97;;;15.40;99.90;;;;;;4950821;28;20981;-87
2022/11/09 07:42:19;;;;;;;2.90;2.10;;;15.60;99.90;;;;;;4951472;28;20566;-86
2022/11/09 07:44:58;;;;;;;2.13;1.80;;;15.70;99.90;;;;;;4961900;28;20501;-87
2022/11/09 07:47:27;;;;;;;3.80;1.80;;;15.60;99.90;;;;;;4962078;28;20486;-85
2022/11/09 07:49:57;;;;;;;2.80;2.03;;;15.60;99.90;;;;;;4957219;28;20559;-86
2022/11/09 07:52:36;;;;;;;4.77;1.80;;;15.60;99.90;;;;;;4980349;28;20515;-87
2022/11/09 07:55:10;;;;;;;2.40;1.80;;;15.40;99.90;;;;;;4962977;29;20528;-86
2022/11/09 07:57:43;;;;;;;1.90;1.70;;;15.50;99.90;;;;;;4974086;28;20493;-88
2022/11/09 08:00:19;;;;;;;3.00;1.77;;;15.60;99.90;;;;;;4972990;28;20491;-87
2022/11/09 08:03:06;;;;;;;2.90;1.93;;;15.80;99.90;;;;;;4965021;28;20496;-86
2022/11/09 08:05:36;;;;;;;3.60;2.03;;;15.60;99.90;;;;;;4959286;29;20522;-87
2022/11/09 08:08:07;;;;;;;2.27;2.00;;;15.60;99.90;;;;;;4961958;28;20470;-87
2022/11/09 08:10:40;;;;;;;3.00;1.90;;;15.50;99.90;;;;;;4955458;28;20470;-86
2022/11/09 08:13:17;;;;;;;4.47;1.77;;;16.00;99.90;;;;;;4956010;28;20487;-87
2022/11/09 08:15:47;;;;;;;5.93;2.00;;;16.20;99.90;;;;;;4962947;28;20465;-86
2022/11/09 08:18:20;;;;;;;7.70;2.23;;;16.30;99.90;;;;;;4961402;28;20470;-88
2022/11/09 08:21:01;;;;;;;4.10;2.00;;;16.40;99.90;;;;;;4962630;28;20455;-86
2022/11/09 08:23:28;;;;;;;4.50;2.43;;;16.40;99.90;;;;;;4961715;28;20464;-89
2022/11/09 08:25:55;;;;;;;2.63;1.80;;;16.40;99.90;;;;;;4958159;28;20531;-88
2022/11/09 08:28:22;;;;;;;2.40;2.23;;;16.50;99.90;;;;;;4961349;28;20514;-87
2022/11/09 08:30:58;;;;;;;5.23;1.90;;;16.50;99.90;;;;;;4957965;29;20481;-87
2022/11/09 08:33:30;;;;;;;3.53;2.20;;;16.50;99.90;;;;;;4954561;28;20526;-86
2022/11/09 08:36:16;;;;;;;4.70;2.27;;;16.60;99.90;;;;;;4977852;28;20980;-87
2022/11/09 08:38:45;;;;;;;4.60;2.17;;;16.50;99.90;;;;;;4952294;28;20495;-88
2022/11/09 08:41:15;;;;;;;4.50;2.50;;;16.60;99.90;;;;;;4959261;28;20479;-88
2022/11/09 08:46:19;;;;;;;3.37;1.90;;;16.60;99.90;;;;;;5005740;23;20510;-88
2022/11/09 08:48:53;;;;;;;5.93;2.00;;;16.70;99.90;;;;;;4980140;28;20473;-86
2022/11/09 08:51:20;;;;;;;3.50;1.97;;;16.60;99.90;;;;;;4971826;28;20558;-86
2022/11/09 08:53:52;;;;;;;2.70;1.50;;;16.70;99.90;;;;;;4991103;28;20465;-86
2022/11/09 08:56:21;;;;;;;3.93;2.20;;;16.60;99.90;;;;;;4997087;28;20454;-87
2022/11/09 08:58:51;;;;;;;3.10;1.80;;;16.40;99.90;;;;;;4970791;28;20455;-86
2022/11/09 09:01:20;;;;;;;6.67;2.50;;;16.40;99.90;;;;;;4982040;28;20478;-86
2022/11/09 09:03:51;;;;;;;2.73;1.90;;;16.60;99.90;;;;;;4981226;28;20516;-87
2022/11/09 09:06:21;;;;;;;4.23;1.87;;;16.80;99.90;;;;;;4998543;28;20454;-85
2022/11/09 09:08:56;;;;;;;2.33;1.50;;;16.80;99.90;;;;;;4983467;28;20509;-89
2022/11/09 09:11:38;;;;;;;4.03;2.10;;;16.80;99.90;;;;;;4981183;28;20486;-88
2022/11/09 09:14:09;;;;;;;4.13;1.87;;;16.60;99.90;;;;;;5017514;28;20508;-88
2022/11/09 09:16:36;;;;;;;3.00;1.93;;;16.60;99.90;;;;;;5002365;28;20508;-86
2022/11/09 09:19:05;;;;;;;4.30;1.53;;;16.70;99.90;;;;;;4980239;28;20559;-88
2022/11/09 09:21:38;;;;;;;1.73;0.97;;;16.60;99.90;;;;;;4985216;28;20693;-87
2022/11/09 09:24:05;;;;;;;2.97;1.80;;;16.90;98.20;;;;;;4984412;28;20530;-85
2022/11/09 09:26:38;;;;;;;5.77;1.33;;;16.80;97.50;;;;;;4983404;28;20470;-86
2022/11/09 09:29:05;;;;;;;2.50;1.13;;;16.80;97.70;;;;;;4985140;28;20450;-86
2022/11/09 09:31:36;;;;;;;1.53;1.30;;;16.90;97.40;;;;;;4984345;28;20501;-86
2022/11/09 09:34:12;;;;;;;3.60;1.40;;;17.10;97.00;;;;;;5016251;28;20557;-86
2022/11/09 09:36:41;;;;;;;3.23;1.40;;;18.10;95.80;;;;;;4983858;28;20469;-86
2022/11/09 09:39:17;;;;;;;2.20;1.00;;;19.60;93.20;;;;;;4988891;28;20458;-87
2022/11/09 09:41:52;;;;;;;1.20;1.10;;;20.30;90.20;;;;;;4989315;28;20495;-87
2022/11/09 09:44:44;;;;;;;2.90;1.20;;;19.90;90.30;;;;;;4975402;28;20951;-87
2022/11/09 09:47:42;;;;;;;5.33;0.90;;;19.40;91.30;;;;;;5002680;28;20461;-87
2022/11/09 09:50:17;;;;;;;1.90;0.77;;;19.00;91.10;;;;;;5017368;28;20462;-87
2022/11/09 09:53:16;;;;;;;2.10;0.83;;;18.80;91.90;;;;;;4987610;28;20477;-86
2022/11/09 09:55:55;;;;;;;0.93;0.83;;;18.40;92.20;;;;;;5000756;28;21023;-86
2022/11/09 10:01:15;;;;;;;3.47;0.90;;;17.80;92.90;;;;;;4988847;28;21092;-87
2022/11/09 10:03:49;;;;;;;1.33;0.90;;;17.70;92.90;;;;;;4967630;28;20545;-85
2022/11/09 10:06:44;;;;;;;2.80;1.00;;;17.50;93.00;;;;;;4965698;28;20534;-86
2022/11/09 10:09:53;;;;;;;3.37;1.03;;;17.40;93.30;;;;;;4967050;28;20501;-86
2022/11/09 10:12:53;;;;;;;5.13;0.83;;;17.40;93.10;;;;;;4964272;28;20465;-87
2022/11/09 10:15:45;;;;;;;2.10;1.70;;;17.10;93.40;;;;;;4965970;28;20452;-85
2022/11/09 10:18:56;;;;;;;1.80;1.10;;;17.20;93.50;;;;;;4963845;28;20469;-86
2022/11/09 10:21:39;;;;;;;2.60;1.00;;;17.30;93.10;;;;;;4961404;28;20497;-86
2022/11/09 10:24:21;;;;;;;1.20;0.97;;;17.50;92.70;;;;;;4962995;28;20514;-86
2022/11/09 10:26:54;;;;;;;2.20;0.90;;;17.50;92.20;;;;;;4982285;28;20878;-85
2022/11/09 10:29:23;;;;;;;2.80;1.13;;;17.50;91.70;;;;;;4962743;28;20443;-86
2022/11/09 10:32:01;;;;;;;2.80;1.30;;;17.50;92.00;;;;;;4961404;28;20481;-85
2022/11/09 10:34:34;;;;;;;1.80;0.80;;;17.40;92.00;;;;;;4952391;28;20468;-85
2022/11/09 10:37:18;;;;;;;1.67;1.10;;;17.60;91.60;;;;;;4960820;28;20791;-86
2022/11/09 10:40:07;;;;;;;1.73;0.93;;;17.40;91.60;;;;;;4965693;28;20463;-84
2022/11/09 10:42:37;;;;;;;1.67;1.00;;;17.50;91.50;;;;;;4962700;28;20518;-87
2022/11/09 10:48:35;;;;;;;3.63;1.00;;;17.70;90.80;;;;;;4981387;28;20454;-88
2022/11/09 10:51:38;;;;;;;4.30;1.20;;;17.60;90.50;;;;;;4961863;28;20478;-87
2022/11/09 10:54:26;;;;;;;2.90;1.00;;;17.50;90.70;;;;;;4961093;28;20451;-88
2022/11/09 10:57:31;;;;;;;3.30;1.20;;;17.40;91.50;;;;;;4960703;28;20439;-87
2022/11/09 11:00:15;;;;;;;2.00;1.03;;;17.40;91.30;;;;;;4978571;28;20462;-86
2022/11/09 11:03:07;;;;;;;1.40;0.63;;;17.60;90.40;;;;;;4963648;28;20497;-87
2022/11/09 11:05:55;;;;;;;2.97;1.27;;;17.60;89.00;;;;;;4949783;28;20953;-86
2022/11/09 11:09:04;;;;;;;2.80;1.03;;;17.60;90.10;;;;;;4918751;29;20442;-86
2022/11/09 11:11:34;;;;;;;1.43;0.87;;;17.50;89.20;;;;;;4908980;29;20482;-85
2022/11/09 11:14:38;;;;;;;2.33;1.10;;;17.50;90.00;;;;;;4922505;29;20453;-85
2022/11/09 11:18:11;;;;;;;3.70;1.40;;;17.40;90.00;;;;;;4914609;29;20499;-86
2022/11/09 11:21:17;;;;;;;2.60;0.90;;;17.40;90.60;;;;;;4870143;29;20472;-85
2022/11/09 11:24:31;;;;;;;2.47;1.00;;;17.50;90.20;;;;;;4939667;28;20631;-87
2022/11/09 11:27:54;;;;;;;2.50;1.03;;;17.20;90.20;;;;;;4937261;29;20482;-86
2022/11/09 11:30:51;;;;;;;1.93;1.10;;;17.30;90.40;;;;;;4862988;29;20454;-86
2022/11/09 11:33:54;;;;;;;4.07;1.07;;;17.70;88.00;;;;;;4857438;29;20452;-86
2022/11/09 11:37:31;;;;;;;5.70;1.40;;;17.30;89.10;;;;;;4917553;29;20459;-87
2022/11/09 11:40:17;;;;;;;2.10;0.93;;;17.20;90.10;;;;;;4963146;28;20465;-86
2022/11/09 11:43:16;;;;;;;3.50;0.90;;;17.20;89.80;;;;;;4981457;28;20490;-87
2022/11/09 11:50:26;;;;;;;2.53;1.03;;;17.50;88.90;;;;;;4988337;28;20485;-84
2022/11/09 11:53:52;;;;;;;3.33;1.50;;;17.20;88.20;;;;;;4982482;28;20513;-84
2022/11/09 11:56:57;;;;;;;2.30;1.17;;;17.20;89.30;;;;;;4974320;28;20913;-83
2022/11/09 12:14:59;;;;;;;3.73;1.03;;;17.60;86.10;;;;;;5336203;23;20567;-84
2022/11/09 12:18:18;;;;;;;2.00;1.07;;;17.60;85.70;;;;;;4956605;28;20465;-84
2022/11/09 12:25:51;;;;;;;3.40;1.13;;;17.60;85.60;;;;;;4925760;29;20521;-83
2022/11/09 12:29:18;;;;;;;5.43;1.30;;;17.60;84.10;;;;;;4896684;29;20551;-84
2022/11/09 12:32:59;;;;;;;4.13;1.20;;;17.40;85.40;;;;;;4817683;29;20485;-83
2022/11/09 12:36:26;;;;;;;;;;;;;;;;;;;;;
2022/11/09 12:40:08;;;;;;;;;;;;;;;;;;;;;
2022/11/09 12:43:18;;;;;;;3.60;1.00;;;17.20;86.90;;;;;;5183725;23;20498;-83
2022/11/09 12:50:17;;;;;;;;;;;;;;;;;;;;;
2022/11/09 12:57:05;;;;;;;3.03;1.00;;;17.70;81.60;;;;;;4884275;29;20794;-81
2022/11/09 13:00:43;;;;;;;2.27;1.10;;;17.50;83.00;;;;;;4904069;29;20453;-81
2022/11/09 13:04:44;;;;;;;2.93;0.93;;;17.50;82.60;;;;;;5042575;23;20490;-83
2022/11/09 13:08:05;;;;;;;2.80;1.50;;;17.20;82.60;;;;;;4958631;28;20510;-83
2022/11/09 13:15:00;;;;;;;4.77;1.20;;;17.70;80.40;;;;;;4818596;29;20509;-82
2022/11/09 13:18:50;;;;;;;4.03;1.07;;;17.50;79.90;;;;;;4797727;29;20475;-84
2022/11/09 13:21:44;;;;;;;4.07;1.10;;;17.30;80.20;;;;;;4877821;29;20487;-85
2022/11/09 13:36:08;;;;;;;5.23;1.23;;;16.90;82.30;;;;;;4753878;30;20580;-84
2022/11/09 13:39:31;;;;;;;2.10;1.10;;;16.90;82.50;;;;;;4736869;30;20450;-84
2022/11/09 13:42:30;;;;;;;4.07;1.47;;;17.30;82.20;;;;;;4733374;30;20474;-84
2022/11/09 13:46:03;;;;;;;3.10;2.40;;;17.20;81.90;;;;;;4748138;30;20445;-84
2022/11/09 13:53:26;;;;;;;3.47;1.10;;;17.40;82.00;;;;;;4822438;29;20975;-83
2022/11/09 13:57:49;;;;;;;;;;;;;;;;;;;;;
2022/11/09 14:03:38;;;;;;;3.33;2.20;;;16.90;82.90;;;;;;5248265;23;20527;-84
2022/11/09 14:14:30;;;;;;;3.67;0.90;;;16.90;82.90;;;;;;4961558;28;20458;-81
2022/11/09 14:18:23;;;;;;;4.13;1.10;;;16.90;82.60;;;;;;4979438;28;20438;-83
2022/11/09 14:22:01;;;;;;;5.80;1.20;;;17.10;81.80;;;;;;4978850;28;20450;-84
2022/11/09 14:24:49;;;;;;;3.87;1.03;;;16.90;82.00;;;;;;4959608;28;20587;-83
2022/11/09 14:35:27;;;;;;;4.47;1.33;;;16.70;82.70;;;;;;4917359;29;20442;-83
2022/11/09 14:39:03;;;;;;;;;;;;;;;;;;;;;
2022/11/09 14:41:59;;;;;;;3.20;1.10;;;16.70;83.40;;;;;;5037716;23;20482;-83
2022/11/09 14:45:50;;;;;;;4.00;1.60;;;16.70;83.90;;;;;;4978054;28;20444;-86
2022/11/09 14:53:02;;;;;;;1.20;0.70;;;16.80;83.80;;;;;;4932467;29;20525;-83
2022/11/09 14:57:03;;;;;;;2.67;1.00;;;16.80;84.00;;;;;;4915477;29;20527;-84
2022/11/09 15:00:45;;;;;;;5.00;1.70;;;16.70;84.20;;;;;;4943244;29;20805;-83
2022/11/09 15:04:15;;;;;;;4.60;1.30;;;16.60;84.70;;;;;;4866650;29;20507;-84
2022/11/09 15:07:46;;;;;;;3.17;1.43;;;16.60;85.10;;;;;;4957770;28;20981;-84
2022/11/09 15:10:57;;;;;;;8.50;1.17;;;16.60;85.80;;;;;;4934015;29;20442;-84
2022/11/09 15:18:12;;;;;;;;;;;;;;;;;;;;;
2022/11/09 15:23:48;;;;;;;5.13;1.40;;;16.50;87.50;;;;;;4995726;28;20545;-83
2022/11/09 15:29:56;;;;;;;2.40;0.87;;;16.40;88.50;;;;;;5098195;23;20498;-84
2022/11/09 15:33:06;;;;;;;3.03;1.30;;;16.40;88.80;;;;;;4987859;28;20471;-84
2022/11/09 15:36:52;;;;;;;;;;;;;;;;;;;;;
2022/11/09 15:40:22;;;;;;;2.93;1.10;;;16.30;90.00;;;;;;4971429;28;20470;-83
2022/11/09 15:43:20;;;;;;;4.93;1.00;;;16.10;90.20;;;;;;4984284;23;20610;-82
2022/11/09 15:46:01;;;;;;;2.33;1.10;;;16.00;90.40;;;;;;4979881;28;20464;-84
2022/11/09 15:49:24;;;;;;;3.67;1.27;;;16.00;90.80;;;;;;4964461;28;20451;-83